Time;durP1;ratioP1;P1;durP2;ratioP2;P2;SDS_P1;SDS_P2;PMS_P1;PMS_P2;Temp;Humidity;BMP_temperature;BMP_pressure;BME280_temperature;BME280_humidity;BME280_pressure;Samples;Min_cycle;Max_cycle;Signal;HPM_P1;HPM_P2
2023/09/26 00:00:21;;;;;;;;;;;;;;;17.19;49.95;102133.31;4965427;28;124580;-78
2023/09/26 00:02:51;;;;;;;;;;;;;;;17.18;50.04;102136.97;4967309;28;119018;-79
2023/09/26 00:05:19;;;;;;;;;;;;;;;17.17;50.07;102135.22;4966838;28;119157;-80
2023/09/26 00:07:48;;;;;;;;;;;;;;;17.15;50.17;102137.09;4965150;28;124307;-79
2023/09/26 00:10:16;;;;;;;;;;;;;;;17.14;50.16;102146.09;4962495;28;124028;-81
2023/09/26 00:12:43;;;;;;;;;;;;;;;17.12;50.27;102142.59;4961285;28;119984;-79
2023/09/26 00:15:11;;;;;;;;;;;;;;;17.12;50.00;102147.97;4967424;28;120072;-79
2023/09/26 00:17:38;;;;;;;;;;;;;;;17.09;50.21;102145.47;4960278;28;125130;-78
2023/09/26 00:20:27;;;;;;;;;;;;;;;17.07;50.05;102142.00;4965266;28;123318;-79
2023/09/26 00:22:53;;;;;;;;;;;;;;;17.05;50.32;102141.22;4959022;28;120864;-79
2023/09/26 00:25:20;;;;;;;;;;;;;;;17.03;50.30;102133.25;4967024;28;118015;-79
2023/09/26 00:27:47;;;;;;;;;;;;;;;17.02;50.37;102136.00;4966334;28;125421;-79
2023/09/26 00:30:17;;;;;;;;;;;;;;;17.00;50.25;102136.09;4963729;28;124283;-80
2023/09/26 00:32:44;;;;;;;;;;;;;;;16.98;50.12;102129.94;4955003;28;119252;-79
2023/09/26 00:35:12;;;;;;;;;;;;;;;16.93;50.12;102132.00;4963442;28;118675;-79
2023/09/26 00:37:43;;;;;;;;;;;;;;;16.87;50.20;102126.97;4962828;28;123513;-81
2023/09/26 00:40:12;;;;;;;;;;;;;;;16.82;50.34;102129.88;4948874;28;122958;-79
2023/09/26 00:42:39;;;;;;;;;;;;;;;16.77;50.16;102131.88;4963502;28;118721;-81
2023/09/26 00:45:06;;;;;;;;;;;;;;;16.74;50.31;102132.03;4964569;28;120145;-79
2023/09/26 00:47:35;;;;;;;;;;;;;;;16.73;50.38;102119.59;4961370;28;125130;-79
2023/09/26 00:50:03;;;;;;;;;;;;;;;16.72;50.50;102124.06;4965370;28;123218;-79
2023/09/26 00:52:30;;;;;;;;;;;;;;;16.72;50.38;102123.22;4963545;28;120739;-80
2023/09/26 00:54:57;;;;;;;;;;;;;;;16.72;50.54;102123.22;4963358;28;118568;-79
2023/09/26 00:57:24;;;;;;;;;;;;;;;16.72;50.41;102124.06;4956888;28;123628;-80
2023/09/26 00:59:51;;;;;;;;;;;;;;;16.73;50.50;102120.47;4961912;28;124741;-81
2023/09/26 01:02:18;;;;;;;;;;;;;;;16.73;50.55;102124.97;4948346;28;121433;-80
2023/09/26 01:04:45;;;;;;;;;;;;;;;16.72;50.41;102123.22;4968477;28;119851;-80
2023/09/26 01:07:12;;;;;;;;;;;;;;;16.72;50.60;102118.72;4966721;28;124307;-79
2023/09/26 01:09:40;;;;;;;;;;;;;;;16.72;50.44;102117.88;4968739;28;123938;-81
2023/09/26 01:12:08;;;;;;;;;;;;;;;16.71;50.52;102121.50;4965320;28;119556;-79
2023/09/26 01:14:35;;;;;;;;;;;;;;;16.70;50.59;102125.09;4967882;28;119384;-81
2023/09/26 01:17:03;;;;;;;;;;;;;;;16.68;50.54;102127.00;4969878;28;123558;-79
2023/09/26 01:19:30;;;;;;;;;;;;;;;16.67;50.62;102130.59;4967713;28;126104;-79
2023/09/26 01:21:58;;;;;;;;;;;;;;;16.65;50.60;102116.44;4956415;28;120586;-80
2023/09/26 01:24:25;;;;;;;;;;;;;;;16.65;50.37;102111.09;4964814;28;118127;-79
2023/09/26 01:26:52;;;;;;;;;;;;;;;16.65;50.65;102116.44;4951748;28;124520;-82
2023/09/26 01:29:19;;;;;;;;;;;;;;;16.62;50.51;102105.91;4968789;28;124114;-79
2023/09/26 01:31:46;;;;;;;;;;;;;;;16.60;50.65;102107.78;4965939;28;119898;-79
2023/09/26 01:34:13;;;;;;;;;;;;;;;16.59;50.49;102106.06;4970007;28;118272;-79
2023/09/26 01:36:40;;;;;;;;;;;;;;;16.57;50.67;102103.44;4969857;28;124130;-80
2023/09/26 01:39:07;;;;;;;;;;;;;;;16.54;50.79;102093.78;4969721;28;124710;-80
2023/09/26 01:41:34;;;;;;;;;;;;;;;16.55;50.69;102100.84;4964151;28;117448;-80
2023/09/26 01:44:01;;;;;;;;;;;;;;;16.54;50.91;102104.47;4966256;28;118051;-80
2023/09/26 01:46:28;;;;;;;;;;;;;;;16.54;50.85;102103.63;4967908;28;124130;-81
2023/09/26 01:48:55;;;;;;;;;;;;;;;16.53;50.63;102102.72;4984075;28;122999;-80
2023/09/26 01:51:22;;;;;;;;;;;;;;;16.53;50.65;102102.72;4968732;28;121396;-80
2023/09/26 01:53:49;;;;;;;;;;;;;;;16.52;50.74;102095.66;4963573;28;119216;-79
2023/09/26 01:56:16;;;;;;;;;;;;;;;16.52;50.72;102101.03;4967184;28;124252;-80
2023/09/26 01:58:43;;;;;;;;;;;;;;;16.51;50.78;102093.91;4956729;28;123434;-80
2023/09/26 02:01:10;;;;;;;;;;;;;;;16.49;50.67;102095.81;4967414;28;117856;-80
2023/09/26 02:03:37;;;;;;;;;;;;;;;16.47;50.57;102097.69;4969398;28;118496;-80
2023/09/26 02:06:04;;;;;;;;;;;;;;;16.45;50.71;102099.59;4969168;28;124230;-80
2023/09/26 02:08:31;;;;;;;;;;;;;;;16.43;50.75;102096.13;4969613;28;124272;-79
2023/09/26 02:10:58;;;;;;;;;;;;;;;16.41;50.76;102092.66;4969264;28;120038;-80
2023/09/26 02:13:25;;;;;;;;;;;;;;;16.40;50.62;102090.91;4964383;28;118985;-81
2023/09/26 02:15:52;;;;;;;;;;;;;;;16.38;50.82;102082.09;4962593;28;125034;-79
2023/09/26 02:18:19;;;;;;;;;;;;;;;16.37;50.84;102080.41;4968883;28;125009;-79
2023/09/26 02:20:47;;;;;;;;;;;;;;;16.35;50.82;102082.28;4968619;28;120358;-79
2023/09/26 02:23:13;;;;;;;;;;;;;;;16.35;50.82;102082.28;4969034;28;119611;-79
2023/09/26 02:25:40;;;;;;;;;;;;;;;16.33;50.80;102092.16;4964225;28;124449;-81
2023/09/26 02:28:07;;;;;;;;;;;;;;;16.33;51.01;102094.81;4953537;28;123664;-80
2023/09/26 02:30:34;;;;;;;;;;;;;;;16.33;50.90;102101.06;4966952;28;121030;-79
2023/09/26 02:33:01;;;;;;;;;;;;;;;16.32;51.02;102093.13;4959830;28;118751;-80
2023/09/26 02:35:28;;;;;;;;;;;;;;;16.32;50.95;102093.13;4964663;28;124949;-80
2023/09/26 02:37:56;;;;;;;;;;;;;;;16.29;50.87;102085.22;4957725;28;123707;-79
2023/09/26 02:40:23;;;;;;;;;;;;;;;16.27;50.78;102089.78;4964286;28;121278;-80
2023/09/26 02:42:50;;;;;;;;;;;;;;;16.26;50.88;102096.09;4965428;28;120596;-79
2023/09/26 02:45:17;;;;;;;;;;;;;;;16.23;51.04;102093.56;4968902;28;123522;-81
2023/09/26 02:47:46;;;;;;;;;;;;;;;16.21;51.09;102090.09;4965584;28;125355;-79
2023/09/26 02:50:13;;;;;;;;;;;;;;;16.21;51.10;102084.75;4966683;28;119398;-81
2023/09/26 02:52:41;;;;;;;;;;;;;;;16.20;51.01;102083.00;4968393;28;118851;-79
2023/09/26 02:55:09;;;;;;;;;;;;;;;16.18;50.89;102074.19;4961368;28;123847;-80
2023/09/26 02:57:36;;;;;;;;;;;;;;;16.18;51.02;102084.91;4957493;28;124050;-82
2023/09/26 03:00:17;;;;;;;;;;;;;;;16.17;51.12;102069.81;4959963;28;119390;-81
2023/09/26 03:02:45;;;;;;;;;;;;;;;16.17;51.20;102067.13;4966648;28;119098;-81
2023/09/26 03:05:14;;;;;;;;;;;;;;;16.17;51.27;102075.16;4967679;28;125131;-81
2023/09/26 03:07:42;;;;;;;;;;;;;;;16.15;51.00;102070.75;4958533;28;122548;-82
2023/09/26 03:10:09;;;;;;;;;;;;;;;16.17;51.10;102067.13;4967940;28;120146;-80
2023/09/26 03:12:36;;;;;;;;;;;;;;;16.15;51.16;102060.06;4959043;28;119284;-81
2023/09/26 03:15:03;;;;;;;;;;;;;;;16.15;51.19;102052.03;4938156;28;125799;-81
2023/09/26 03:17:30;;;;;;;;;;;;;;;16.13;51.08;102045.91;4967923;28;123912;-81
2023/09/26 03:19:57;;;;;;;;;;;;;;;16.13;51.03;102040.56;4989032;28;120071;-82
2023/09/26 03:22:24;;;;;;;;;;;;;;;16.12;50.99;102044.19;4968239;28;118681;-80
2023/09/26 03:24:52;;;;;;;;;;;;;;;16.10;51.24;102048.72;4953869;28;124963;-79
2023/09/26 03:27:19;;;;;;;;;;;;;;;16.09;51.30;102049.66;4965255;28;125445;-80
2023/09/26 03:29:49;;;;;;;;;;;;;;;16.08;51.18;102041.72;4964562;28;120549;-81
2023/09/26 03:32:16;;;;;;;;;;;;;;;16.08;51.15;102037.22;4973531;28;120177;-81
2023/09/26 03:34:43;;;;;;;;;;;;;;;16.07;51.25;102032.00;4969156;28;124826;-80
2023/09/26 03:37:10;;;;;;;;;;;;;;;16.06;51.26;102044.47;4964852;28;124029;-80
2023/09/26 03:39:37;;;;;;;;;;;;;;;16.04;51.04;102041.00;4965455;28;119558;-79
2023/09/26 03:42:04;;;;;;;;;;;;;;;16.03;51.27;102044.63;4964424;28;117775;-80
2023/09/26 03:44:31;;;;;;;;;;;;;;;16.02;51.15;102048.22;4973594;28;124738;-80
2023/09/26 03:46:58;;;;;;;;;;;;;;;16.01;51.15;102046.50;4971872;28;123934;-79
2023/09/26 03:49:25;;;;;;;;;;;;;;;16.00;51.33;102044.78;4968666;28;120100;-79
2023/09/26 03:51:53;;;;;;;;;;;;;;;16.01;51.34;102046.50;4952742;28;118631;-81
2023/09/26 03:54:20;;;;;;;;;;;;;;;16.00;51.37;102044.78;4959299;28;123608;-80
2023/09/26 03:56:47;;;;;;;;;;;;;;;15.97;51.22;102044.91;4955608;28;124329;-79
2023/09/26 03:59:15;;;;;;;;;;;;;;;15.97;51.29;102039.56;4960646;28;120275;-79
2023/09/26 04:01:43;;;;;;;;;;;;;;;15.97;51.42;102042.22;4959157;28;118676;-79
2023/09/26 04:04:10;;;;;;;;;;;;;;;15.96;51.21;102040.53;4949779;28;125205;-79
2023/09/26 04:06:38;;;;;;;;;;;;;;;15.95;51.20;102042.34;4969024;28;122807;-79
2023/09/26 04:09:05;;;;;;;;;;;;;;;15.95;51.38;102041.44;4966375;28;120042;-79
2023/09/26 04:11:33;;;;;;;;;;;;;;;15.95;51.21;102036.09;4979408;28;120275;-79
2023/09/26 04:14:00;;;;;;;;;;;;;;;15.94;51.32;102034.38;4959053;28;124124;-79
2023/09/26 04:16:27;;;;;;;;;;;;;;;15.95;51.39;102036.09;4957823;28;124641;-79
2023/09/26 04:18:54;;;;;;;;;;;;;;;15.94;51.39;102034.38;4964714;28;119324;-79
2023/09/26 04:21:22;;;;;;;;;;;;;;;15.93;51.25;102037.97;4967489;28;121034;-79
2023/09/26 04:23:48;;;;;;;;;;;;;;;15.92;51.43;102042.47;4963999;28;124913;-79
2023/09/26 04:26:17;;;;;;;;;;;;;;;15.91;51.50;102039.88;4956672;28;123534;-79
2023/09/26 04:28:45;;;;;;;;;;;;;;;15.91;51.41;102039.88;4966700;28;120259;-79
2023/09/26 04:31:12;;;;;;;;;;;;;;;15.89;51.30;102037.25;4964922;28;119651;-80
2023/09/26 04:33:40;;;;;;;;;;;;;;;15.88;51.38;102038.22;4966981;28;123672;-80
2023/09/26 04:36:06;;;;;;;;;;;;;;;15.87;51.42;102038.28;4967422;28;124638;-79
2023/09/26 04:38:34;;;;;;;;;;;;;;;15.87;51.36;102039.16;4963957;28;119679;-79
2023/09/26 04:41:02;;;;;;;;;;;;;;;15.86;51.44;102047.22;4965346;28;118733;-79
2023/09/26 04:43:30;;;;;;;;;;;;;;;15.85;51.49;102042.84;4961702;28;125753;-80
2023/09/26 04:45:57;;;;;;;;;;;;;;;15.84;51.61;102038.44;4964442;28;124635;-79
2023/09/26 04:48:24;;;;;;;;;;;;;;;15.82;51.58;102040.31;4958197;28;120568;-80
2023/09/26 04:50:51;;;;;;;;;;;;;;;15.82;51.43;102034.97;4945997;28;118233;-79
2023/09/26 04:53:18;;;;;;;;;;;;;;;15.81;51.58;102027.91;4964987;28;124411;-79
2023/09/26 04:55:45;;;;;;;;;;;;;;;15.80;51.54;102031.50;4955543;28;123534;-79
2023/09/26 04:58:12;;;;;;;;;;;;;;;15.81;51.62;102033.25;4965228;28;119787;-80
2023/09/26 05:00:39;;;;;;;;;;;;;;;15.79;51.65;102029.78;4959561;28;117147;-80
2023/09/26 05:03:06;;;;;;;;;;;;;;;15.79;51.88;102024.44;4961256;28;124396;-79
2023/09/26 05:05:33;;;;;;;;;;;;;;;15.77;51.67;102030.72;4964435;28;124459;-79
2023/09/26 05:08:00;;;;;;;;;;;;;;;15.76;51.72;102026.34;4948451;28;120298;-80
2023/09/26 05:10:27;;;;;;;;;;;;;;;15.75;51.53;102024.59;4966835;28;119555;-79
2023/09/26 05:12:57;;;;;;;;;;;;;;;15.74;51.76;102014.81;4965608;28;125022;-79
2023/09/26 05:15:28;;;;;;;;;;;;;;;15.74;51.76;102017.50;4960383;28;125293;-79
2023/09/26 05:17:55;;;;;;;;;;;;;;;15.74;51.80;102017.50;4958758;28;118972;-80
2023/09/26 05:20:23;;;;;;;;;;;;;;;15.74;51.77;102012.16;4962601;28;119021;-79
2023/09/26 05:22:51;;;;;;;;;;;;;;;15.73;51.63;102010.44;4967823;28;123611;-81
2023/09/26 05:25:18;;;;;;;;;;;;;;;15.73;51.70;102021.13;4958295;28;124407;-79
2023/09/26 05:27:45;;;;;;;;;;;;;;;15.73;51.61;102010.44;4967161;28;119542;-80
2023/09/26 05:30:13;;;;;;;;;;;;;;;15.72;51.83;102006.00;4965190;28;119101;-81
2023/09/26 05:32:40;;;;;;;;;;;;;;;15.74;51.73;102017.50;4964914;28;124436;-80
2023/09/26 05:35:08;;;;;;;;;;;;;;;15.73;51.88;102015.78;4966782;28;123957;-79
2023/09/26 05:37:36;;;;;;;;;;;;;;;15.74;51.91;102011.28;4956484;28;119547;-80
2023/09/26 05:40:06;;;;;;;;;;;;;;;15.75;51.80;102013.03;4960585;28;119244;-80
2023/09/26 05:42:37;;;;;;;;;;;;;;;15.75;51.89;102016.56;4955931;28;124540;-79
2023/09/26 05:45:08;;;;;;;;;;;;;;;15.75;51.89;102019.25;4955387;28;124305;-81
2023/09/26 05:47:35;;;;;;;;;;;;;;;15.76;51.87;102015.66;4954617;28;119635;-79
2023/09/26 05:50:03;;;;;;;;;;;;;;;15.79;51.96;102013.75;4950399;28;117785;-80
2023/09/26 05:52:30;;;;;;;;;;;;;;;15.80;51.98;102026.16;4965369;28;124172;-81
2023/09/26 05:54:58;;;;;;;;;;;;;;;15.83;51.91;102026.03;4966716;28;124220;-79
2023/09/26 05:57:28;;;;;;;;;;;;;;;15.84;51.84;102011.72;4972024;28;121006;-80
2023/09/26 05:59:55;;;;;;;;;;;;;;;15.86;51.95;102015.16;4968149;28;120001;-80
2023/09/26 06:02:22;;;;;;;;;;;;;;;15.89;52.04;102020.38;4965178;28;124555;-80
2023/09/26 06:04:50;;;;;;;;;;;;;;;15.90;51.96;102022.13;4968057;28;123795;-81
2023/09/26 06:07:17;;;;;;;;;;;;;;;15.91;52.09;102027.38;4965724;28;119748;-79
2023/09/26 06:09:44;;;;;;;;;;;;;;;15.93;52.10;102021.94;4951155;28;121193;-79
2023/09/26 06:12:31;;;;;;;;;;;;;;;15.95;52.03;102025.41;4958528;28;125570;-79
2023/09/26 06:14:58;;;;;;;;;;;;;;;15.98;51.93;102025.28;4967661;28;124495;-79
2023/09/26 06:17:25;;;;;;;;;;;;;;;16.01;52.03;102035.81;4962118;28;119936;-79
2023/09/26 06:19:55;;;;;;;;;;;;;;;16.04;52.15;102038.31;4961127;28;119531;-80
2023/09/26 06:22:22;;;;;;;;;;;;;;;16.08;52.08;102031.03;4965732;28;123874;-79
2023/09/26 06:24:49;;;;;;;;;;;;;;;16.11;52.17;102037.09;4950169;28;123061;-79
2023/09/26 06:27:16;;;;;;;;;;;;;;;16.18;52.26;102036.78;4967711;28;118805;-79
2023/09/26 06:29:43;;;;;;;;;;;;;;;16.24;52.32;102031.16;4968959;28;118708;-78
2023/09/26 06:32:10;;;;;;;;;;;;;;;16.31;52.15;102032.56;4967380;28;124080;-78
2023/09/26 06:34:39;;;;;;;;;;;;;;;16.37;52.48;102028.69;4965475;28;124633;-78
2023/09/26 06:37:06;;;;;;;;;;;;;;;16.43;52.38;102037.28;4961150;28;120587;-79
2023/09/26 06:39:34;;;;;;;;;;;;;;;16.50;52.23;102036.03;4966919;28;118762;-79
2023/09/26 06:42:01;;;;;;;;;;;;;;;16.59;52.32;102036.50;4966647;28;123644;-78
2023/09/26 06:44:29;;;;;;;;;;;;;;;16.67;52.49;102034.28;4959443;28;124263;-78
2023/09/26 06:46:56;;;;;;;;;;;;;;;16.73;52.28;102034.00;4958284;28;119758;-78
2023/09/26 06:49:23;;;;;;;;;;;;;;;16.78;52.21;102026.56;4957999;28;119093;-78
2023/09/26 06:51:51;;;;;;;;;;;;;;;16.85;52.28;102027.16;4961559;28;124720;-78
2023/09/26 06:54:18;;;;;;;;;;;;;;;16.91;52.24;102022.38;4955620;28;123363;-80
2023/09/26 06:56:45;;;;;;;;;;;;;;;17.00;52.51;102025.50;4965291;28;120041;-78
2023/09/26 06:59:12;;;;;;;;;;;;;;;17.06;52.42;102020.66;4954506;28;118195;-78
2023/09/26 07:01:39;;;;;;;;;;;;;;;17.13;52.23;102022.06;4941605;28;125929;-78
2023/09/26 07:04:13;;;;;;;;;;;;;;;17.19;52.31;102014.66;4967210;28;124922;-78
2023/09/26 07:06:41;;;;;;;;;;;;;;;17.26;52.33;102010.72;4958800;28;119855;-79
2023/09/26 07:09:12;;;;;;;;;;;;;;;17.30;52.27;102017.63;4960162;28;118694;-80
2023/09/26 07:11:40;;;;;;;;;;;;;;;17.38;52.47;102019.88;4959356;28;124361;-79
2023/09/26 07:14:07;;;;;;;;;;;;;;;17.46;52.47;102007.81;4965448;28;125227;-79
2023/09/26 07:16:34;;;;;;;;;;;;;;;17.57;52.65;102012.53;4966457;28;119285;-79
2023/09/26 07:19:02;;;;;;;;;;;;;;;17.66;52.46;102009.34;4966656;28;118841;-78
2023/09/26 07:21:29;;;;;;;;;;;;;;;17.71;52.49;102009.97;4965455;28;124366;-78
2023/09/26 07:23:56;;;;;;;;;;;;;;;17.74;52.49;102010.72;4957556;28;124105;-78
2023/09/26 07:26:23;;;;;;;;;;;;;;;17.81;52.56;102012.13;4958920;28;120548;-78
2023/09/26 07:28:55;;;;;;;;;;;;;;;17.88;52.38;102013.53;4958218;28;117746;-78
2023/09/26 07:31:23;;;;;;;;;;;;;;;17.96;52.47;102022.00;4965234;28;123328;-79
2023/09/26 07:33:50;;;;;;;;;;;;;;;18.02;52.42;102018.94;4959737;28;123705;-79
2023/09/26 07:36:18;;;;;;;;;;;;;;;18.08;52.46;102021.31;4960046;28;120934;-78
2023/09/26 07:38:45;;;;;;;;;;;;;;;18.19;52.46;102017.13;4957352;28;119838;-79
2023/09/26 07:41:12;;;;;;;;;;;;;;;18.28;52.33;102013.91;4959598;28;125316;-78
2023/09/26 07:43:39;;;;;;;;;;;;;;;18.38;52.64;102017.75;4954470;28;123960;-78
2023/09/26 07:46:07;;;;;;;;;;;;;;;18.48;52.39;102023.47;4955665;28;119622;-79
2023/09/26 07:48:35;;;;;;;;;;;;;;;18.60;52.46;102016.47;4959110;28;119652;-81
2023/09/26 07:51:02;;;;;;;;;;;;;;;18.70;52.48;102023.00;4948351;28;123590;-79
2023/09/26 07:53:29;;;;;;;;;;;;;;;18.77;52.45;102019.00;4964474;28;124606;-78
2023/09/26 07:55:57;;;;;;;;;;;;;;;18.86;52.41;102018.47;4966334;28;119070;-78
2023/09/26 07:58:24;;;;;;;;;;;;;;;19.00;52.49;102019.44;4966309;28;118751;-79
2023/09/26 08:00:55;;;;;;;;;;;;;;;19.12;52.54;102010.63;4964740;28;125198;-79
2023/09/26 08:03:22;;;;;;;;;;;;;;;19.24;52.60;102012.53;4961899;28;124504;-79
2023/09/26 08:05:49;;;;;;;;;;;;;;;19.34;52.40;102022.69;4967630;28;120180;-79
2023/09/26 08:08:16;;;;;;;;;;;;;;;19.44;52.42;102019.34;4967405;28;119409;-78
2023/09/26 08:10:43;;;;;;;;;;;;;;;19.56;52.43;102016.84;4962199;28;124677;-79
2023/09/26 08:13:10;;;;;;;;;;;;;;;19.67;52.29;102024.22;4962408;28;123849;-79
2023/09/26 08:15:37;;;;;;;;;;;;;;;19.73;52.25;102018.47;4957232;28;118547;-80
2023/09/26 08:18:04;;;;;;;;;;;;;;;19.83;52.38;102014.19;4952227;28;118181;-79
2023/09/26 08:20:31;;;;;;;;;;;;;;;19.89;52.37;102019.19;4961698;28;123859;-79
2023/09/26 08:22:58;;;;;;;;;;;;;;;19.98;52.33;102007.81;4956206;28;124129;-78
2023/09/26 08:25:26;;;;;;;;;;;;;;;20.07;52.16;102005.47;4962380;28;120793;-79
2023/09/26 08:27:54;;;;;;;;;;;;;;;20.15;52.19;102001.28;4962392;28;119972;-79
2023/09/26 08:30:22;;;;;;;;;;;;;;;20.25;52.28;101998.88;4950120;28;124327;-79
2023/09/26 08:33:03;;;;;;;;;;;;;;;20.34;52.26;101992.88;4961777;28;125801;-79
2023/09/26 08:35:38;;;;;;;;;;;;;;;20.46;52.20;102001.06;4956181;28;121222;-78
2023/09/26 08:38:05;;;;;;;;;;;;;;;20.54;52.22;102001.41;4959926;28;117570;-79
2023/09/26 08:40:32;;;;;;;;;;;;;;;20.68;52.18;101995.97;4961333;28;124102;-79
2023/09/26 08:42:59;;;;;;;;;;;;;;;20.79;52.19;101993.38;4952044;28;124141;-79
2023/09/26 08:45:26;;;;;;;;;;;;;;;20.89;52.15;101976.56;4961222;28;120718;-79
2023/09/26 08:47:56;;;;;;;;;;;;;;;20.97;51.88;101974.19;4959135;28;118905;-79
2023/09/26 08:50:24;;;;;;;;;;;;;;;21.02;52.06;101966.66;4961943;28;123779;-78
2023/09/26 08:52:52;;;;;;;;;;;;;;;21.11;51.99;101974.06;4956417;28;122798;-78
2023/09/26 08:55:20;;;;;;;;;;;;;;;21.22;52.09;101961.66;4963199;28;119490;-78
2023/09/26 08:57:48;;;;;;;;;;;;;;;21.37;52.12;101960.53;4961242;28;118917;-77
2023/09/26 09:00:17;;;;;;;;;;;;;;;21.49;52.02;101965.06;4965384;28;125148;-78
2023/09/26 09:02:44;;;;;;;;;;;;;;;21.56;51.91;101971.72;4961325;28;123050;-78
2023/09/26 09:05:11;;;;;;;;;;;;;;;21.68;51.96;101969.09;4965958;28;119698;-78
2023/09/26 09:07:39;;;;;;;;;;;;;;;21.81;51.99;101969.88;4964995;28;118418;-78
2023/09/26 09:10:07;;;;;;;;;;;;;;;21.94;52.00;101965.31;4963485;28;124069;-78
2023/09/26 09:12:37;;;;;;;;;;;;;;;22.10;52.01;101969.56;4947934;28;124968;-80
2023/09/26 09:15:20;;;;;;;;;;;;;;;22.25;51.97;101979.19;4966353;28;120093;-78
2023/09/26 09:17:52;;;;;;;;;;;;;;;22.38;51.88;101978.25;4962673;28;119184;-79
2023/09/26 09:20:32;;;;;;;;;;;;;;;22.49;51.87;101980.97;4955493;28;124363;-79
2023/09/26 09:23:03;;;;;;;;;;;;;;;22.60;51.77;101972.91;4951613;28;124149;-79
2023/09/26 09:25:31;;;;;;;;;;;;;;;22.67;51.58;101976.84;4966635;28;119385;-79
2023/09/26 09:27:59;;;;;;;;;;;;;;;22.76;51.70;101963.63;4968915;28;117711;-79
2023/09/26 09:30:26;;;;;;;;;;;;;;;22.90;51.88;101968.75;4967824;28;124302;-78
2023/09/26 09:32:55;;;;;;;;;;;;;;;23.01;51.48;101963.34;4966028;28;124356;-78
2023/09/26 09:35:22;;;;;;;;;;;;;;;23.10;51.67;101959.97;4966566;28;119478;-78
2023/09/26 09:37:50;;;;;;;;;;;;;;;23.26;51.81;101958.72;4969223;28;118642;-78
2023/09/26 09:40:19;;;;;;;;;;;;;;;23.41;51.72;101968.25;4969712;28;123902;-78
2023/09/26 09:42:48;;;;;;;;;;;;;;;23.58;51.65;101968.72;4970534;28;121288;-78
2023/09/26 09:45:15;;;;;;;;;;;;;;;23.73;51.74;101961.19;4970592;28;119631;-78
2023/09/26 09:47:46;;;;;;;;;;;;;;;23.87;51.50;101948.25;4968334;28;119108;-78
2023/09/26 09:50:13;;;;;;;;;;;;;;;24.04;51.49;101954.09;4966923;28;125116;-78
2023/09/26 09:52:48;;;;;;;;;;;;;;;24.13;51.20;101947.03;4967356;28;124100;-78
2023/09/26 09:55:19;;;;;;;;;;;;;;;24.18;51.38;101951.06;4952462;28;119404;-78
2023/09/26 09:57:52;;;;;;;;;;;;;;;24.25;51.25;101946.84;4970178;28;118424;-78
2023/09/26 10:00:25;;;;;;;;;;;;;;;24.37;51.06;101954.91;4942590;28;125713;-77
2023/09/26 10:02:52;;;;;;;;;;;;;;;24.51;51.24;101945.59;4964558;28;123635;-77
2023/09/26 10:05:20;;;;;;;;;;;;;;;24.64;51.03;101947.13;4969201;28;120316;-77
2023/09/26 10:07:49;;;;;;;;;;;;;;;24.76;51.08;101944.34;4969777;28;118971;-77
2023/09/26 10:10:16;;;;;;;;;;;;;;;24.82;50.91;101932.94;4970617;28;124756;-77
2023/09/26 10:12:44;;;;;;;;;;;;;;;24.91;50.63;101937.56;4969142;28;123569;-77
2023/09/26 10:15:34;;;;;;;;;;;;;;;25.02;50.69;101923.91;4969377;28;119882;-77
2023/09/26 10:18:02;;;;;;;;;;;;;;;25.13;50.68;101913.94;4967731;28;118707;-77
2023/09/26 10:20:29;;;;;;;;;;;;;;;25.21;50.71;101927.69;4965224;28;124859;-78
2023/09/26 10:23:16;;;;;;;;;;;;;;;25.29;50.59;101925.16;4961420;28;124664;-77
2023/09/26 10:25:43;;;;;;;;;;;;;;;25.40;50.79;101929.59;4969361;28;119640;-77
2023/09/26 10:28:10;;;;;;;;;;;;;;;25.49;50.74;101919.78;4959416;28;118659;-77
2023/09/26 10:30:46;;;;;;;;;;;;;;;25.56;50.24;101920.91;4963335;28;124247;-77
2023/09/26 10:33:13;;;;;;;;;;;;;;;25.59;50.29;101926.06;4967687;28;124789;-77
2023/09/26 10:36:00;;;;;;;;;;;;;;;25.62;50.20;101925.78;4958562;28;119524;-77
2023/09/26 10:38:27;;;;;;;;;;;;;;;25.68;50.11;101940.66;4952977;28;117955;-77
2023/09/26 10:40:55;;;;;;;;;;;;;;;25.74;50.37;101940.94;4981171;28;124663;-77
2023/09/26 10:43:27;;;;;;;;;;;;;;;25.79;49.86;101938.66;4969043;28;124849;-77
2023/09/26 10:46:14;;;;;;;;;;;;;;;25.86;50.14;101932.66;4964436;28;119558;-77
2023/09/26 10:48:41;;;;;;;;;;;;;;;25.92;50.29;101926.66;4958795;28;118802;-77
2023/09/26 10:51:08;;;;;;;;;;;;;;;25.96;50.19;101925.41;4960449;28;124229;-77
2023/09/26 10:53:36;;;;;;;;;;;;;;;25.95;49.73;101931.81;4965698;28;124205;-77
2023/09/26 10:56:03;;;;;;;;;;;;;;;25.94;49.92;101930.13;4964908;28;120015;-77
2023/09/26 10:58:30;;;;;;;;;;;;;;;25.97;50.14;101913.53;4963440;28;119364;-77
2023/09/26 11:00:58;;;;;;;;;;;;;;;26.02;50.04;101916.69;4964915;28;123739;-77
2023/09/26 11:03:25;;;;;;;;;;;;;;;26.04;49.60;101914.69;4960498;28;124052;-77
2023/09/26 11:05:53;;;;;;;;;;;;;;;26.06;49.97;101912.66;4965261;28;119660;-78
2023/09/26 11:08:21;;;;;;;;;;;;;;;26.08;49.85;101913.38;4961488;28;117808;-77
2023/09/26 11:10:49;;;;;;;;;;;;;;;26.11;49.86;101914.97;4964740;28;123593;-77
2023/09/26 11:13:16;;;;;;;;;;;;;;;26.12;49.63;101928.38;4954567;28;123196;-77
2023/09/26 11:15:47;;;;;;;;;;;;;;;26.17;49.85;101936.94;4966141;28;119493;-77
2023/09/26 11:18:14;;;;;;;;;;;;;;;26.22;49.68;101929.22;4959651;28;119295;-76
2023/09/26 11:20:41;;;;;;;;;;;;;;;26.26;49.69;101912.63;4960714;28;124208;-77
2023/09/26 11:23:34;;;;;;;;;;;;;;;26.29;49.68;101909.63;4956814;28;123419;-77
2023/09/26 11:26:03;;;;;;;;;;;;;;;26.32;49.39;101902.06;4957653;28;119677;-77
2023/09/26 11:28:31;;;;;;;;;;;;;;;26.33;49.36;101919.19;4967900;28;118578;-77
2023/09/26 11:31:00;;;;;;;;;;;;;;;26.34;49.46;101926.34;4967002;28;124013;-77
2023/09/26 11:33:27;;;;;;;;;;;;;;;26.37;49.71;101926.91;4964251;28;123976;-77
2023/09/26 11:35:54;;;;;;;;;;;;;;;26.40;49.22;101914.91;4963662;28;119453;-77
2023/09/26 11:38:21;;;;;;;;;;;;;;;26.40;49.25;101917.63;4959800;28;117864;-77
2023/09/26 11:40:48;;;;;;;;;;;;;;;26.41;49.53;101912.03;4959387;28;122358;-77
2023/09/26 11:43:15;;;;;;;;;;;;;;;26.42;49.14;101902.03;4964243;28;124844;-77
2023/09/26 11:45:42;;;;;;;;;;;;;;;26.44;49.15;101889.16;4965103;28;121193;-77
2023/09/26 11:48:09;;;;;;;;;;;;;;;26.45;49.13;101904.44;4962584;28;118936;-77
2023/09/26 11:50:39;;;;;;;;;;;;;;;26.45;49.08;101918.03;4964881;28;124013;-77
2023/09/26 11:53:06;;;;;;;;;;;;;;;26.47;49.02;101929.59;4961397;28;123879;-77
2023/09/26 11:55:35;;;;;;;;;;;;;;;26.47;48.89;101907.88;4962969;28;119866;-77
2023/09/26 11:58:02;;;;;;;;;;;;;;;26.47;49.21;101905.16;4958166;28;119508;-77
2023/09/26 12:00:30;;;;;;;;;;;;;;;26.50;48.97;101910.28;4956570;28;125446;-77
2023/09/26 12:02:57;;;;;;;;;;;;;;;26.51;48.90;101906.56;4963656;28;124234;-77
2023/09/26 12:05:24;;;;;;;;;;;;;;;26.52;48.90;101886.56;4956863;28;119649;-77
2023/09/26 12:07:51;;;;;;;;;;;;;;;26.55;48.85;101896.25;4961787;28;118025;-80
2023/09/26 12:10:19;;;;;;;;;;;;;;;26.58;49.21;101894.09;4966437;28;123703;-78
2023/09/26 12:12:46;;;;;;;;;;;;;;;26.62;49.33;101892.00;4962325;28;124294;-77
2023/09/26 12:15:16;;;;;;;;;;;;;;;26.65;48.86;101890.81;4959810;28;119495;-77
2023/09/26 12:17:43;;;;;;;;;;;;;;;26.68;49.07;101885.09;4965382;28;118864;-77
2023/09/26 12:20:11;;;;;;;;;;;;;;;26.69;49.13;101882.25;4964771;28;123513;-77
2023/09/26 12:22:38;;;;;;;;;;;;;;;26.75;49.16;101886.22;4963026;28;124596;-77
2023/09/26 12:25:05;;;;;;;;;;;;;;;26.78;48.66;101875.03;4952604;28;119080;-77
2023/09/26 12:27:33;;;;;;;;;;;;;;;26.78;48.70;101880.47;4961812;28;117060;-77
2023/09/26 12:30:00;;;;;;;;;;;;;;;26.77;48.74;101879.63;4954150;28;124540;-77
2023/09/26 12:32:27;;;;;;;;;;;;;;;26.75;48.55;101883.50;4959452;28;124635;-77